Detall de PIREP

Printer-friendly versionPDF version

[2017/08/20 07:43:00]
Flight IATA:CT2109
Pilot Number:041
Company ICAO:CAT
Aircraft Type:B463/A
PAX:100
Aircraft Registration:PAX
Departing Airport: LEMG
Destination Airport: LEVC
Alternate Airport:LEBL
Online: VATSIM
Route:VIBAS UM985 ASTRO
Flight Level:FL300
No Slew and time accel
No pause
Crash detect
Detect pilot in Cockpit between each 30 and 45 minutes
07:43 Zero fuel Weight: 81535 Lbs, Fuel Weight: 7425 Lbs
07:43 VATSIM:LEMG 200730Z VRB01KT 7000 FEW014 BKN020 26/22 Q1018 NOSIG
07:43 VATSIM:LEVC 200730Z 33004KT 280V360 9999 FEW025 BKN050 25/21 Q1021 NOSIG
07:43 VOICE CATALONIAN
07:43 Parking Brakes off
07:48 Take-off
07:48 Take off Weight: 88607 Lbs
07:48 Wind: 064º @ 011 Knots Heading: 314º
07:48 POS N36º 40´ 32´´ W004º 30´ 00´´
07:48 Gear Up: 189 Knots
07:48 Flaps:1 at 190 Knots
07:48 Flaps:0 at 218 Knots
08:03 Wind:208º@019 Knots Heading: 049º Ground Speed: 387 Knots Altitude 28375 ft
08:03 TOC
08:03 Fuel Weight: 5085 Lb
08:17 TOD
08:17 Fuel Weight: 3996 Lb
08:18 Wind:256º@037 Knots Heading: 050º Ground Speed: 411 Knots Altitude 29202 ft
08:33 Wind:307º@002 Knots Heading: 074º Ground Speed: 267 Knots Altitude 4015 ft
08:34 Flaps:1 at 220 Knots
08:43 Flaps:2 at 185 Knots
08:43 Gear Down: 185 Knots
08:43 Flaps:3 at 163 Knots
08:44 Flaps:4 at 150 Knots
08:47 TouchDown:Rate -169 ft/min Speed: 126 Knots
08:47 Flaps:0 at 107 Knots
08:47 VATSIM:LEVC 200830Z 05004KT 010V110 9999 FEW020 SCT040 27/22 Q1021 NOSIG
08:47 Land
08:47 Wind:073º@009 Knots
08:47 Heading: 296º
08:47 Flight Duration: 00:59
08:47 Landing Weight: 84332 Lbs
08:47 POS N39º 29´ 24´´ W000º 29´ 02´´
08:50 Parking brakes on
08:50 Block to Block Duration: 01:07
08:50 Final Fuel: 2689 Lbls
08:50 Spent Fuel: 4735 Lbls
08:50 Flight Length: 298 NM
08:50 TOD Land Length: 121 NM

Exportar CSV

Powered by Drupal - Modified by Danger4k